KGEY/GEY METAR and TAF weather

Enter ICAO airport designator
Station Type Date Time Source
KGEY METAR 2019/02/20 06:53 UTC NOAA

KGEY 200653Z AUTO 13003KT 10SM CLR M17/M19 A2970 RMK AO2 SLP127 T11721189 410611172


Station Type Date Time Source
KGEY Decoded METAR 2019/02/20 06:53 UTC NOAA

SOUTH BIG HORN COUNTY AIRPORT , WY, United States (KGEY) 44-31N 108-05W 1191M
Feb 20, 2019 - 01:53 AM EST / 2019.02.20 0653 UTC
Wind: from the SE (130 degrees) at 3 MPH (3 KT):0
Visibility: 10 mile(s):0
Sky conditions: clear
Temperature: 1.0 F (-17.2 C)
Dew Point: -2.0 F (-18.9 C)
Relative Humidity: 86%
Pressure (altimeter): 29.7 in. Hg (1005 hPa)
ob: KGEY 200653Z AUTO 13003KT 10SM CLR M17/M19 A2970 RMK AO2 SLP127 T11721189 410611172
cycle: 7

Station Type Date Time Source
KGEY TAF UTC NOAA

Error!


Example: see airport list